createdAt,value
2023-04-07T00:00:08.699Z,3.05
2023-04-07T00:02:50.997Z,3.10
2023-04-07T00:05:18.565Z,3.25
2023-04-07T00:07:55.774Z,3.08
2023-04-07T00:10:24.769Z,2.72
2023-04-07T00:12:52.554Z,3.20
2023-04-07T00:15:19.887Z,2.72
2023-04-07T00:17:47.268Z,3.22
2023-04-07T00:20:14.648Z,2.53
2023-04-07T00:22:41.944Z,2.97
2023-04-07T00:25:09.454Z,2.55
2023-04-07T00:27:36.851Z,2.10
2023-04-07T00:30:04.523Z,2.20
2023-04-07T00:32:31.860Z,2.50
2023-04-07T00:35:02.254Z,2.50
2023-04-07T00:37:30.616Z,2.20
2023-04-07T00:39:59.550Z,2.38
2023-04-07T00:42:26.860Z,3.03
2023-04-07T00:44:55.012Z,2.70
2023-04-07T00:47:22.320Z,2.42
2023-04-07T00:49:49.634Z,2.72
2023-04-07T00:52:16.892Z,2.53
2023-04-07T00:54:45.179Z,3.00
2023-04-07T00:57:12.541Z,3.15
2023-04-07T00:59:40.251Z,3.20
2023-04-07T01:02:13.607Z,3.13
2023-04-07T01:07:24.223Z,3.92
2023-04-07T01:10:06.349Z,3.63
2023-04-07T01:15:23.321Z,3.10
2023-04-07T01:18:01.695Z,2.97
2023-04-07T01:20:31.780Z,3.08
2023-04-07T01:23:08.615Z,3.00
2023-04-07T01:31:05.287Z,3.17
2023-04-07T01:33:33.117Z,2.75
2023-04-07T01:36:01.785Z,3.03
2023-04-07T01:38:30.043Z,3.22
2023-04-07T01:40:58.019Z,3.78
2023-04-07T01:43:26.513Z,4.03
2023-04-07T01:45:54.910Z,3.78
2023-04-07T01:48:23.837Z,3.35
2023-04-07T01:50:51.585Z,3.00
2023-04-07T01:53:18.989Z,3.08
2023-04-07T01:55:46.479Z,3.08
2023-04-07T01:58:13.744Z,3.60
2023-04-07T02:00:43.664Z,3.63
2023-04-07T02:03:21.702Z,3.00
2023-04-07T02:05:50.831Z,3.53
2023-04-07T02:08:19.604Z,3.72
2023-04-07T02:10:49.561Z,3.90
2023-04-07T02:13:19.530Z,4.45
2023-04-07T02:15:49.636Z,3.63
2023-04-07T02:18:20.446Z,2.85
2023-04-07T02:20:48.388Z,3.58
2023-04-07T02:23:16.561Z,3.67
2023-04-07T02:25:43.846Z,3.50
2023-04-07T02:28:11.094Z,3.47
2023-04-07T02:30:38.332Z,2.78
2023-04-07T02:33:05.683Z,3.03
2023-04-07T02:35:32.993Z,3.33
2023-04-07T02:38:02.668Z,3.50
2023-04-07T02:40:30.003Z,2.88
2023-04-07T02:42:57.298Z,3.45
2023-04-07T02:45:25.304Z,3.63
2023-04-07T02:47:52.578Z,3.58
2023-04-07T02:50:20.054Z,4.03
2023-04-07T02:52:47.454Z,3.90
2023-04-07T02:55:15.982Z,2.92
2023-04-07T02:57:43.521Z,3.38
2023-04-07T03:00:22.096Z,3.95
2023-04-07T03:03:02.737Z,4.03
2023-04-07T03:05:33.420Z,3.35
2023-04-07T03:08:02.535Z,2.67
2023-04-07T03:10:30.133Z,2.47
2023-04-07T03:12:58.065Z,2.17
2023-04-07T03:15:25.432Z,1.85
2023-04-07T03:17:53.164Z,2.30
2023-04-07T03:20:21.305Z,1.88
2023-04-07T03:22:48.556Z,2.08
2023-04-07T03:25:22.563Z,1.55
2023-04-07T03:27:51.614Z,1.55
2023-04-07T03:30:19.611Z,1.35
2023-04-07T03:32:47.440Z,1.63
2023-04-07T03:35:14.815Z,1.40
2023-04-07T03:37:44.838Z,1.08
2023-04-07T03:40:16.316Z,1.27
2023-04-07T03:42:44.229Z,1.85
2023-04-07T03:45:13.645Z,2.20
2023-04-07T03:47:46.675Z,1.10
2023-04-07T03:50:14.874Z,1.10
2023-04-07T03:55:25.691Z,0.95
2023-04-07T03:57:57.222Z,1.17
2023-04-07T04:00:27.667Z,1.10
2023-04-07T04:03:06.060Z,1.30
2023-04-07T04:05:35.956Z,0.93
2023-04-07T04:08:04.462Z,1.00
2023-04-07T04:10:34.583Z,1.08
2023-04-07T04:13:04.279Z,1.00
2023-04-07T04:15:31.715Z,0.77
2023-04-07T04:18:01.954Z,1.45
2023-04-07T04:20:31.090Z,0.85
2023-04-07T04:22:58.385Z,1.38
2023-04-07T04:25:26.566Z,0.70
2023-04-07T04:27:57.461Z,0.70
2023-04-07T04:30:26.956Z,0.93
2023-04-07T04:32:57.734Z,0.70
2023-04-07T04:35:33.909Z,0.63
2023-04-07T04:38:09.272Z,2.45
2023-04-07T04:40:38.990Z,1.23
2023-04-07T04:43:07.726Z,1.02
2023-04-07T04:45:37.270Z,0.88
2023-04-07T04:48:05.797Z,1.08
2023-04-07T04:50:33.328Z,1.10
2023-04-07T04:53:03.767Z,1.08
2023-04-07T04:55:31.073Z,1.23
2023-04-07T04:57:58.587Z,1.02
2023-04-07T05:00:37.057Z,3.10
2023-04-07T05:03:08.093Z,1.30
2023-04-07T05:05:39.367Z,0.95
2023-04-07T05:08:06.822Z,1.17
2023-04-07T05:10:39.874Z,0.80
2023-04-07T05:13:10.431Z,1.05
2023-04-07T05:15:37.831Z,1.20
2023-04-07T05:18:08.764Z,1.02
2023-04-07T05:20:36.353Z,0.85
2023-04-07T05:23:03.895Z,1.30
2023-04-07T05:25:33.895Z,0.60
2023-04-07T05:28:04.891Z,0.70
2023-04-07T05:30:32.650Z,0.90
2023-04-07T05:33:00.075Z,0.95
2023-04-07T05:35:38.966Z,0.82
2023-04-07T05:38:06.311Z,0.90
2023-04-07T05:40:35.132Z,0.63
2023-04-07T05:43:05.025Z,0.90
2023-04-07T05:45:34.143Z,0.70
2023-04-07T05:48:01.608Z,0.70
2023-04-07T05:50:38.800Z,0.70
2023-04-07T05:53:10.866Z,1.38
2023-04-07T05:55:38.174Z,1.30
2023-04-07T05:58:08.963Z,0.98
2023-04-07T06:00:36.396Z,1.40
2023-04-07T06:03:09.599Z,1.00
2023-04-07T06:05:49.259Z,0.95
2023-04-07T06:08:19.484Z,1.00
2023-04-07T06:10:47.077Z,0.80
2023-04-07T06:13:14.469Z,0.60
2023-04-07T06:15:43.007Z,0.70
2023-04-07T06:18:10.836Z,0.70
2023-04-07T06:20:39.910Z,1.05
2023-04-07T06:23:07.548Z,1.23
2023-04-07T06:25:34.884Z,1.45
2023-04-07T06:28:02.204Z,1.15
2023-04-07T06:30:29.700Z,1.48
2023-04-07T06:32:57.820Z,0.77
2023-04-07T06:35:27.110Z,0.80
2023-04-07T06:37:54.405Z,0.82
2023-04-07T06:40:22.009Z,0.75
2023-04-07T06:42:49.295Z,0.98
2023-04-07T06:45:24.668Z,0.70
2023-04-07T06:47:52.173Z,0.88
2023-04-07T06:50:22.544Z,0.60
2023-04-07T06:52:49.915Z,0.90
2023-04-07T06:55:17.658Z,0.75
2023-04-07T06:57:44.979Z,1.13
2023-04-07T07:00:13.069Z,0.57
2023-04-07T07:02:40.779Z,0.65
2023-04-07T07:05:08.590Z,0.80
2023-04-07T07:07:35.867Z,1.17
2023-04-07T07:10:03.568Z,0.70
2023-04-07T07:12:30.959Z,0.32
2023-04-07T07:14:58.206Z,0.55
2023-04-07T07:17:25.561Z,0.32
2023-04-07T07:19:52.853Z,0.70
2023-04-07T07:22:20.228Z,0.55
2023-04-07T07:24:47.695Z,0.60
2023-04-07T07:27:14.972Z,0.60
2023-04-07T07:29:42.411Z,0.32
2023-04-07T07:32:09.723Z,0.50
2023-04-07T07:34:37.045Z,0.70
2023-04-07T07:37:04.373Z,1.05
2023-04-07T07:39:31.768Z,0.45
2023-04-07T07:41:59.120Z,0.50
2023-04-07T07:44:26.420Z,0.60
2023-04-07T07:46:53.749Z,0.73
2023-04-07T07:49:21.891Z,0.93
2023-04-07T07:51:49.212Z,0.50
2023-04-07T07:54:16.547Z,0.60
2023-04-07T07:56:44.027Z,0.40
2023-04-07T07:59:11.546Z,0.40
2023-04-07T08:01:38.871Z,0.82
2023-04-07T08:04:07.287Z,0.90
2023-04-07T08:06:34.856Z,0.95
2023-04-07T08:09:02.481Z,0.63
2023-04-07T08:11:29.894Z,0.60
2023-04-07T08:13:57.365Z,0.50
2023-04-07T08:16:24.915Z,0.30
2023-04-07T08:18:52.330Z,0.50
2023-04-07T08:21:21.251Z,0.47
2023-04-07T08:23:48.821Z,0.77
2023-04-07T08:26:16.328Z,1.02
2023-04-07T08:28:43.653Z,1.27
2023-04-07T08:31:11.007Z,1.35
2023-04-07T08:33:38.388Z,0.80
2023-04-07T08:36:06.094Z,0.50
2023-04-07T08:38:33.432Z,0.45
2023-04-07T08:41:04.102Z,0.80
2023-04-07T08:43:31.867Z,0.50
2023-04-07T08:45:59.688Z,0.30
2023-04-07T08:48:30.686Z,0.52
2023-04-07T08:50:58.206Z,1.23
2023-04-07T08:53:30.060Z,1.30
2023-04-07T08:55:57.612Z,1.35
2023-04-07T08:58:25.195Z,1.05
2023-04-07T09:00:52.722Z,0.50
2023-04-07T09:03:20.153Z,0.43
2023-04-07T09:05:47.937Z,0.60
2023-04-07T09:08:15.313Z,0.50
2023-04-07T09:10:42.726Z,0.70
2023-04-07T09:13:10.050Z,1.05
2023-04-07T09:15:38.845Z,0.40
2023-04-07T09:18:06.770Z,0.60
2023-04-07T09:21:02.243Z,0.52
2023-04-07T09:26:00.383Z,0.40
2023-04-07T09:28:45.414Z,0.80
2023-04-07T09:31:12.936Z,0.60
2023-04-07T09:33:40.518Z,0.43
2023-04-07T09:36:08.215Z,0.45
2023-04-07T09:38:37.914Z,0.45
2023-04-07T09:41:08.449Z,0.70
2023-04-07T09:43:38.470Z,0.75
2023-04-07T09:48:47.162Z,0.68
2023-04-07T09:51:16.408Z,0.60
2023-04-07T09:56:22.679Z,0.60
2023-04-07T09:58:52.232Z,0.93
2023-04-07T10:01:20.900Z,1.38
2023-04-07T10:03:51.479Z,0.80
2023-04-07T10:06:20.932Z,0.63
2023-04-07T10:08:48.294Z,0.50
2023-04-07T10:11:16.189Z,0.88
2023-04-07T10:13:43.549Z,0.52
2023-04-07T10:16:11.388Z,0.80
2023-04-07T10:18:39.038Z,0.98
2023-04-07T10:21:09.519Z,1.10
2023-04-07T10:26:18.539Z,1.08
2023-04-07T10:28:48.880Z,1.00
2023-04-07T10:31:17.134Z,0.45
2023-04-07T10:33:48.044Z,0.93
2023-04-07T10:36:18.068Z,1.85
2023-04-07T10:41:45.595Z,1.65
2023-04-07T10:44:49.178Z,0.98
2023-04-07T10:47:17.055Z,0.70
2023-04-07T10:50:20.732Z,1.15
2023-04-07T10:52:50.108Z,1.75
2023-04-07T10:55:38.141Z,1.20
2023-04-07T10:58:25.837Z,1.05
2023-04-07T11:03:39.445Z,1.38
2023-04-07T11:08:46.845Z,1.50
2023-04-07T11:11:19.822Z,1.33
2023-04-07T11:13:49.595Z,0.90
2023-04-07T11:16:20.239Z,1.25
2023-04-07T11:18:49.153Z,1.00
2023-04-07T11:21:20.180Z,1.05
2023-04-07T11:23:48.433Z,0.77
2023-04-07T11:26:16.659Z,0.80
2023-04-07T11:28:59.705Z,0.90
2023-04-07T11:31:28.497Z,0.85
2023-04-07T11:34:02.696Z,0.93
2023-04-07T11:36:34.202Z,0.60
2023-04-07T11:39:03.412Z,0.60
2023-04-07T11:41:33.048Z,0.93
2023-04-07T11:44:09.620Z,1.25
2023-04-07T11:46:37.926Z,1.20
2023-04-07T11:49:14.704Z,0.90
2023-04-07T11:51:43.952Z,1.00
2023-04-07T11:54:11.674Z,0.73
2023-04-07T11:56:47.703Z,0.95
2023-04-07T11:59:21.355Z,1.25
2023-04-07T12:01:49.705Z,1.67
2023-04-07T12:04:17.773Z,1.90
2023-04-07T12:06:47.234Z,0.88
2023-04-07T12:09:32.856Z,1.00
2023-04-07T12:12:00.451Z,0.80
2023-04-07T12:14:28.110Z,0.82
2023-04-07T12:16:57.237Z,0.60
2023-04-07T12:19:28.763Z,0.47
2023-04-07T12:24:24.232Z,0.93
2023-04-07T12:26:51.721Z,0.93
2023-04-07T12:29:20.543Z,1.00
2023-04-07T12:31:50.630Z,1.27
2023-04-07T12:34:18.735Z,1.55
2023-04-07T12:36:46.155Z,1.40
2023-04-07T12:39:13.741Z,1.20
2023-04-07T12:41:41.297Z,0.93
2023-04-07T12:44:08.784Z,0.60
2023-04-07T12:46:36.538Z,0.52
2023-04-07T12:49:04.159Z,0.57
2023-04-07T12:51:33.689Z,0.63
2023-04-07T12:54:01.193Z,0.70
2023-04-07T12:56:29.021Z,1.23
2023-04-07T12:58:56.597Z,0.50
2023-04-07T13:01:24.135Z,0.80
2023-04-07T13:03:52.006Z,1.38
2023-04-07T13:06:19.859Z,1.67
2023-04-07T13:08:47.370Z,0.70
2023-04-07T13:11:14.948Z,0.70
2023-04-07T13:13:42.572Z,0.63
2023-04-07T13:16:10.693Z,0.68
2023-04-07T13:18:38.258Z,0.80
2023-04-07T13:21:40.523Z,0.55
2023-04-07T13:23:54.161Z,1.58
2023-04-07T13:26:22.714Z,0.90
2023-04-07T13:28:50.504Z,0.57
2023-04-07T13:31:18.541Z,0.75
2023-04-07T13:33:46.431Z,0.70
2023-04-07T13:36:13.886Z,0.73
2023-04-07T13:38:42.759Z,0.50
2023-04-07T13:41:10.253Z,0.93
2023-04-07T13:43:37.667Z,1.23
2023-04-07T13:46:11.740Z,0.82
2023-04-07T13:48:45.938Z,1.10
2023-04-07T13:51:13.286Z,0.52
2023-04-07T13:53:40.683Z,1.48
2023-04-07T13:56:09.064Z,0.60
2023-04-07T13:58:36.903Z,0.98
2023-04-07T14:01:04.673Z,1.27
2023-04-07T14:03:32.211Z,1.15
2023-04-07T14:06:01.593Z,0.90
2023-04-07T14:08:29.406Z,1.25
2023-04-07T14:10:57.185Z,0.98
2023-04-07T14:13:25.099Z,0.60
2023-04-07T14:15:54.235Z,1.10
2023-04-07T14:18:22.017Z,0.95
2023-04-07T14:20:49.729Z,0.98
2023-04-07T14:23:30.025Z,0.95
2023-04-07T14:26:03.849Z,2.38
2023-04-07T14:28:31.236Z,1.00
2023-04-07T14:30:58.676Z,0.98
2023-04-07T14:33:26.428Z,1.42
2023-04-07T14:35:53.877Z,2.58
2023-04-07T14:38:24.630Z,1.77
2023-04-07T14:40:53.246Z,0.98
2023-04-07T14:43:20.644Z,1.20
2023-04-07T14:45:48.020Z,1.00
2023-04-07T14:48:15.348Z,0.95
2023-04-07T14:50:42.659Z,1.25
2023-04-07T14:53:10.106Z,0.70
2023-04-07T14:55:37.632Z,1.15
2023-04-07T14:58:04.966Z,2.05
2023-04-07T15:00:32.293Z,1.70
2023-04-07T15:02:59.863Z,1.48
2023-04-07T15:05:29.098Z,1.13
2023-04-07T15:07:56.474Z,0.93
2023-04-07T15:10:23.737Z,1.10
2023-04-07T15:12:51.201Z,2.70
2023-04-07T15:15:18.862Z,1.27
2023-04-07T15:17:46.346Z,0.90
2023-04-07T15:20:13.869Z,0.90
2023-04-07T15:22:41.240Z,0.70
2023-04-07T15:25:24.358Z,0.68
2023-04-07T15:27:51.784Z,0.60
2023-04-07T15:30:19.351Z,1.08
2023-04-07T15:33:06.639Z,0.75
2023-04-07T15:35:34.052Z,0.75
2023-04-07T15:38:01.437Z,0.90
2023-04-07T15:40:28.768Z,0.82
2023-04-07T15:42:56.105Z,0.60
2023-04-07T15:45:23.582Z,0.73
2023-04-07T15:47:53.176Z,0.82
2023-04-07T15:50:20.512Z,0.77
2023-04-07T15:52:47.862Z,1.00
2023-04-07T15:55:15.145Z,0.90
2023-04-07T15:57:42.523Z,1.02
2023-04-07T16:00:10.099Z,0.90
2023-04-07T16:02:38.527Z,0.85
2023-04-07T16:05:06.252Z,1.10
2023-04-07T16:07:33.618Z,1.33
2023-04-07T16:10:00.961Z,1.65
2023-04-07T16:12:29.912Z,0.80
2023-04-07T16:14:57.498Z,0.70
2023-04-07T16:17:24.899Z,0.90
2023-04-07T16:19:52.200Z,0.90
2023-04-07T16:22:19.527Z,0.95
2023-04-07T16:24:47.206Z,0.95
2023-04-07T16:27:14.513Z,0.55
2023-04-07T16:29:41.791Z,1.00
2023-04-07T16:32:09.169Z,1.05
2023-04-07T16:34:36.546Z,0.90
2023-04-07T16:37:03.865Z,0.70
2023-04-07T16:39:31.165Z,1.02
2023-04-07T16:41:58.872Z,0.85
2023-04-07T16:44:26.207Z,0.60
2023-04-07T16:46:53.576Z,0.90
2023-04-07T16:49:20.980Z,0.60
2023-04-07T16:51:48.264Z,0.80
2023-04-07T16:54:15.834Z,0.60
2023-04-07T16:56:43.245Z,1.10
2023-04-07T16:59:10.549Z,1.02
2023-04-07T17:01:42.197Z,0.68
2023-04-07T17:04:09.925Z,1.15
2023-04-07T17:06:37.658Z,0.70
2023-04-07T17:09:05.105Z,0.75
2023-04-07T17:11:32.599Z,1.10
2023-04-07T17:14:00.142Z,0.70
2023-04-07T17:16:27.646Z,0.52
2023-04-07T17:18:54.969Z,0.60
2023-04-07T17:21:22.510Z,0.93
2023-04-07T17:23:50.055Z,0.75
2023-04-07T17:26:17.802Z,0.50
2023-04-07T17:28:46.556Z,0.60
2023-04-07T17:31:14.449Z,0.85
2023-04-07T17:33:41.965Z,0.90
2023-04-07T17:36:09.391Z,0.95
2023-04-07T17:38:37.338Z,1.00
2023-04-07T17:41:04.917Z,1.05
2023-04-07T17:43:32.561Z,1.10
2023-04-07T17:45:59.995Z,1.30
2023-04-07T17:48:28.038Z,1.42
2023-04-07T17:50:56.617Z,0.57
2023-04-07T17:53:24.198Z,1.30
2023-04-07T17:55:52.358Z,1.77
2023-04-07T17:58:21.342Z,1.58
2023-04-07T18:00:52.170Z,0.80
2023-04-07T18:03:20.161Z,1.52
2023-04-07T18:05:47.978Z,1.50
2023-04-07T18:08:15.582Z,1.23
2023-04-07T18:10:43.802Z,1.33
2023-04-07T18:13:11.155Z,1.52
2023-04-07T18:15:38.891Z,1.50
2023-04-07T18:18:06.555Z,1.50
2023-04-07T18:20:34.204Z,1.30
2023-04-07T18:23:02.627Z,1.20
2023-04-07T18:25:30.329Z,1.38
2023-04-07T18:27:59.048Z,1.05
2023-04-07T18:30:26.691Z,1.30
2023-04-07T18:32:54.206Z,1.10
2023-04-07T18:35:21.655Z,1.20
2023-04-07T18:37:49.955Z,1.10
2023-04-07T18:40:17.741Z,1.13
2023-04-07T18:42:45.139Z,1.20
2023-04-07T18:45:12.457Z,1.27
2023-04-07T18:47:39.957Z,1.10
2023-04-07T18:50:08.202Z,1.05
2023-04-07T18:52:36.404Z,0.77
2023-04-07T18:55:04.393Z,0.98
2023-04-07T18:57:31.748Z,0.73
2023-04-07T18:59:59.274Z,0.88
2023-04-07T19:02:26.768Z,0.90
2023-04-07T19:04:54.230Z,1.02
2023-04-07T19:07:21.638Z,0.90
2023-04-07T19:09:53.362Z,0.88
2023-04-07T19:12:21.116Z,1.05
2023-04-07T19:14:48.938Z,0.60
2023-04-07T19:17:16.675Z,0.63
2023-04-07T19:19:43.921Z,0.93
2023-04-07T19:22:11.281Z,0.85
2023-04-07T19:24:39.689Z,0.60
2023-04-07T19:27:07.448Z,0.43
2023-04-07T19:29:35.613Z,0.90
2023-04-07T19:32:03.678Z,0.32
2023-04-07T19:34:31.008Z,0.52
2023-04-07T19:36:58.842Z,0.90
2023-04-07T19:39:26.411Z,0.38
2023-04-07T19:41:53.661Z,0.30
2023-04-07T19:44:21.418Z,0.40
2023-04-07T19:46:49.139Z,0.40
2023-04-07T19:49:16.512Z,0.47
2023-04-07T19:51:43.778Z,0.55
2023-04-07T19:54:11.063Z,0.43
2023-04-07T19:56:38.751Z,0.57
2023-04-07T19:59:08.436Z,0.40
2023-04-07T20:01:35.821Z,0.57
2023-04-07T20:04:03.969Z,0.40
2023-04-07T20:06:33.787Z,0.60
2023-04-07T20:09:01.230Z,0.85
2023-04-07T20:11:28.865Z,0.52
2023-04-07T20:13:56.720Z,0.40
2023-04-07T20:16:24.094Z,0.65
2023-04-07T20:18:51.884Z,0.40
2023-04-07T20:21:19.392Z,0.77
2023-04-07T20:23:46.787Z,0.60
2023-04-07T20:26:14.070Z,0.70
2023-04-07T20:28:41.803Z,0.47
2023-04-07T20:31:09.183Z,0.55
2023-04-07T20:33:36.442Z,0.40
2023-04-07T20:36:03.902Z,0.60
2023-04-07T20:38:31.282Z,0.60
2023-04-07T20:40:58.551Z,0.47
2023-04-07T20:43:25.983Z,0.47
2023-04-07T20:45:53.574Z,0.65
2023-04-07T20:48:24.215Z,0.47
2023-04-07T20:50:51.914Z,0.70
2023-04-07T20:53:20.090Z,0.70
2023-04-07T20:55:47.640Z,0.52
2023-04-07T20:58:16.948Z,0.70
2023-04-07T21:00:44.924Z,0.40
2023-04-07T21:03:12.941Z,0.70
2023-04-07T21:05:40.735Z,0.55
2023-04-07T21:08:08.096Z,0.40
2023-04-07T21:10:35.545Z,0.38
2023-04-07T21:13:02.865Z,0.50
2023-04-07T21:15:30.216Z,0.70
2023-04-07T21:17:57.608Z,0.52
2023-04-07T21:20:24.936Z,0.50
2023-04-07T21:22:52.234Z,0.52
2023-04-07T21:25:19.569Z,0.52
2023-04-07T21:27:46.912Z,0.30
2023-04-07T21:30:14.328Z,0.40
2023-04-07T21:32:41.690Z,0.70
2023-04-07T21:35:09.578Z,0.63
2023-04-07T21:37:36.866Z,0.40
2023-04-07T21:40:04.431Z,0.60
2023-04-07T21:42:31.933Z,0.50
2023-04-07T21:44:59.139Z,0.40
2023-04-07T21:47:26.644Z,0.65
2023-04-07T21:49:53.977Z,0.40
2023-04-07T21:52:21.590Z,0.90
2023-04-07T21:54:48.869Z,0.60
2023-04-07T21:57:16.211Z,0.63
2023-04-07T21:59:43.497Z,0.45
2023-04-07T22:02:11.005Z,0.30
2023-04-07T22:04:38.468Z,0.40
2023-04-07T22:07:05.931Z,0.50
2023-04-07T22:09:33.192Z,0.50
2023-04-07T22:12:00.945Z,0.55
2023-04-07T22:14:28.205Z,0.82
2023-04-07T22:16:55.867Z,0.82
2023-04-07T22:19:23.153Z,0.50
2023-04-07T22:21:50.977Z,0.63
2023-04-07T22:24:18.260Z,0.80
2023-04-07T22:26:45.609Z,0.77
2023-04-07T22:29:12.952Z,0.80
2023-04-07T22:31:40.233Z,0.68
2023-04-07T22:34:08.593Z,0.73
2023-04-07T22:36:36.714Z,0.63
2023-04-07T22:39:04.139Z,0.98
2023-04-07T22:41:31.872Z,0.60
2023-04-07T22:43:59.228Z,0.68
2023-04-07T22:46:26.544Z,0.60
2023-04-07T22:48:53.815Z,1.63
2023-04-07T22:51:21.313Z,0.75
2023-04-07T22:53:48.648Z,0.57
2023-04-07T22:56:16.074Z,0.65
2023-04-07T22:58:43.383Z,0.82
2023-04-07T23:01:11.314Z,0.73
2023-04-07T23:03:38.820Z,0.93
2023-04-07T23:06:06.236Z,1.00
2023-04-07T23:08:33.513Z,1.27
2023-04-07T23:11:00.969Z,1.58
2023-04-07T23:13:28.224Z,0.88
2023-04-07T23:15:55.780Z,1.13
2023-04-07T23:18:23.035Z,1.45
2023-04-07T23:20:52.352Z,0.70
2023-04-07T23:23:19.621Z,0.88
2023-04-07T23:25:47.079Z,0.98
2023-04-07T23:28:14.307Z,1.30
2023-04-07T23:30:41.556Z,0.90
2023-04-07T23:33:08.786Z,0.77
2023-04-07T23:35:36.135Z,1.33
2023-04-07T23:38:03.588Z,0.82
2023-04-07T23:40:31.103Z,1.17
2023-04-07T23:42:58.406Z,0.68
2023-04-07T23:45:25.812Z,0.93
2023-04-07T23:47:53.109Z,1.30
2023-04-07T23:50:20.689Z,0.60
2023-04-07T23:52:47.965Z,1.27
2023-04-07T23:55:15.314Z,0.90
2023-04-07T23:57:42.548Z,1.08
